Temperanceville, Virginia
Current Conditions -  °F | °C
As of 7:54 PM on Wednesday 26 Nov 2014 (Local Time) from KWAL Reporting Station
Overcast Overcast  
Wind Chill: 28°   Ceiling: 1200
Heat Index: 37°   Visibility: 10mi
Dew Point: 35°   Wind: 14mph
Humidity: 93%   Direction: 340°NNW
Pressure: 29.87"   Gusts: 23mph
Location:  37.89°N, 75.55°W
Report Text: KWAL 270054Z AUTO 34012G20KT 10SM OVC012 03/02 A2987 RMK AO2 SLP111 T00280017
Loading
Personal Weather Stations






























Interactive Weather Map New forecast layout! Learn more

10-Day Weather Forecast

Advertisements
Track Severe Weather on mobile